Time;durP1;ratioP1;P1;durP2;ratioP2;P2;SDS_P1;SDS_P2;PMS_P1;PMS_P2;Temp;Humidity;BMP_temperature;BMP_pressure;BME280_temperature;BME280_humidity;BME280_pressure;Samples;Min_cycle;Max_cycle;Signal;HPM_P1;HPM_P2
2021/07/04 15:04:02;;;;;;;4.50;4.20;;;38.90;45.00;;;;;;5058527;27;2949310;-89
2021/07/04 15:06:32;;;;;;;4.57;4.18;;;39.80;42.80;;;;;;5131743;27;20031;-88
2021/07/04 15:08:57;;;;;;;4.45;4.05;;;39.70;42.80;;;;;;5114556;27;20035;-87
2021/07/04 15:11:24;;;;;;;4.18;3.88;;;39.60;43.30;;;;;;5139114;27;20038;-87
2021/07/04 15:13:51;;;;;;;4.32;4.03;;;39.40;43.40;;;;;;5116395;28;20448;-88
2021/07/04 15:16:17;;;;;;;5.32;4.93;;;39.40;43.40;;;;;;5140163;27;20039;-88
2021/07/04 15:18:43;;;;;;;4.85;4.45;;;39.20;43.30;;;;;;5099651;28;20101;-92
2021/07/04 15:21:09;;;;;;;4.43;4.13;;;38.90;43.70;;;;;;5111683;28;20457;-88
2021/07/04 15:23:38;;;;;;;5.10;4.60;;;38.80;43.70;;;;;;5120146;28;20087;-89
2021/07/04 15:26:04;;;;;;;4.20;3.80;;;38.50;43.80;;;;;;5113798;28;20076;-88
2021/07/04 15:28:33;;;;;;;4.30;4.00;;;38.20;44.40;;;;;;5138729;27;20027;-88
2021/07/04 15:31:00;;;;;;;8.75;4.32;;;38.20;44.80;;;;;;5119836;28;20045;-89
2021/07/04 15:33:27;;;;;;;4.75;3.50;;;38.10;44.80;;;;;;5121005;27;20536;-89
2021/07/04 15:35:55;;;;;;;4.18;3.72;;;38.10;44.90;;;;;;5126383;27;20497;-87
2021/07/04 15:38:21;;;;;;;5.20;4.72;;;38.10;44.80;;;;;;5134018;27;20348;-89
2021/07/04 15:40:49;;;;;;;4.80;4.40;;;38.00;44.40;;;;;;5120155;27;20051;-88
2021/07/04 15:43:15;;;;;;;5.28;4.75;;;37.60;44.60;;;;;;5119238;28;20063;-87
2021/07/04 15:45:41;;;;;;;4.88;4.25;;;37.30;45.10;;;;;;5115275;27;20024;-87
2021/07/04 15:48:08;;;;;;;4.13;3.72;;;37.00;45.50;;;;;;5122910;27;20520;-88
2021/07/04 15:50:34;;;;;;;4.85;3.90;;;36.90;45.90;;;;;;5126299;27;20027;-87
2021/07/04 15:53:09;;;;;;;4.10;3.72;;;36.80;46.20;;;;;;5120544;27;20027;-88
2021/07/04 15:55:38;;;;;;;4.30;3.90;;;36.80;46.40;;;;;;5128198;27;20031;-87
2021/07/04 15:58:05;;;;;;;4.35;3.90;;;36.60;46.30;;;;;;5123391;27;20359;-87
2021/07/04 16:00:33;;;;;;;4.65;4.25;;;36.10;46.70;;;;;;5103034;27;20034;-87
2021/07/04 16:03:00;;;;;;;4.13;3.83;;;35.60;47.30;;;;;;5108378;27;20038;-88
2021/07/04 16:05:26;;;;;;;5.18;4.68;;;35.10;47.80;;;;;;5123404;27;20043;-86
2021/07/04 16:07:53;;;;;;;4.38;3.97;;;34.70;48.40;;;;;;5101955;27;20024;-88
2021/07/04 16:10:21;;;;;;;5.50;5.00;;;34.40;48.90;;;;;;5119905;27;20404;-86
2021/07/04 16:12:50;;;;;;;5.75;5.20;;;34.20;49.30;;;;;;5103700;28;20031;-87
2021/07/04 16:15:17;;;;;;;4.68;4.28;;;33.70;49.90;;;;;;5081919;27;20519;-88
2021/07/04 16:17:45;;;;;;;5.95;5.35;;;33.30;50.50;;;;;;5090117;28;20044;-86
2021/07/04 16:20:14;;;;;;;5.50;5.00;;;32.90;51.20;;;;;;5116426;27;20027;-88
2021/07/04 16:22:42;;;;;;;7.55;5.78;;;32.40;52.60;;;;;;5092255;28;20028;-88
2021/07/04 16:25:14;;;;;;;5.90;4.60;;;32.00;53.10;;;;;;5124808;27;20046;-91
2021/07/04 16:27:42;;;;;;;5.50;4.93;;;31.80;53.80;;;;;;5089438;28;20024;-90
2021/07/04 16:30:11;;;;;;;5.05;4.55;;;31.60;54.20;;;;;;5097099;27;20024;-88
2021/07/04 16:32:38;;;;;;;6.00;5.20;;;31.40;54.80;;;;;;5105324;27;20035;-87
2021/07/04 16:35:06;;;;;;;6.00;5.50;;;31.20;55.20;;;;;;5109175;27;20538;-87
2021/07/04 16:37:33;;;;;;;6.28;4.90;;;31.10;56.80;;;;;;5106253;28;20023;-87
2021/07/04 16:39:59;;;;;;;4.95;4.55;;;30.90;56.50;;;;;;5100306;28;20019;-87
2021/07/04 16:42:31;;;;;;;4.72;4.32;;;30.70;56.60;;;;;;5124803;27;20087;-88
2021/07/04 16:44:58;;;;;;;7.50;4.80;;;30.70;56.90;;;;;;5094568;27;20027;-88
2021/07/04 16:47:25;;;;;;;6.63;6.00;;;30.60;57.20;;;;;;5114571;27;20023;-87
2021/07/04 16:49:52;;;;;;;6.10;5.55;;;30.40;57.50;;;;;;5102882;27;20024;-87
2021/07/04 16:52:20;;;;;;;5.53;5.03;;;30.30;57.70;;;;;;5124731;27;20046;-87
2021/07/04 16:54:46;;;;;;;5.55;4.57;;;30.20;57.90;;;;;;5107503;27;20027;-87
2021/07/04 16:57:14;;;;;;;6.00;4.53;;;30.10;58.10;;;;;;5099683;28;20097;-89
2021/07/04 16:59:42;;;;;;;5.60;4.50;;;30.00;58.10;;;;;;5086089;28;20028;-88
2021/07/04 17:02:11;;;;;;;4.97;4.38;;;30.00;58.30;;;;;;5076358;28;20482;-88
2021/07/04 17:04:37;;;;;;;5.90;5.30;;;30.00;58.30;;;;;;5087260;28;20141;-86
2021/07/04 17:07:03;;;;;;;5.43;4.93;;;30.00;58.60;;;;;;5084047;28;20470;-87
2021/07/04 17:09:28;;;;;;;5.97;5.47;;;29.80;58.80;;;;;;5107562;27;20383;-86
2021/07/04 17:11:54;;;;;;;5.50;5.00;;;29.70;59.50;;;;;;5087115;28;20028;-86
2021/07/04 17:14:21;;;;;;;5.53;5.00;;;29.60;59.80;;;;;;5086484;28;20024;-87
2021/07/04 17:16:47;;;;;;;5.80;5.20;;;29.40;60.20;;;;;;5085366;28;20070;-87
2021/07/04 17:19:13;;;;;;;7.88;5.60;;;29.30;60.70;;;;;;5087942;28;20111;-89
2021/07/04 17:21:39;;;;;;;6.35;5.75;;;29.20;61.30;;;;;;5087216;28;20051;-88
2021/07/04 17:24:06;;;;;;;6.32;5.72;;;29.10;62.00;;;;;;5081914;28;20025;-87
2021/07/04 17:26:31;;;;;;;6.40;5.80;;;28.90;62.10;;;;;;5090519;28;20668;-90
2021/07/04 17:28:57;;;;;;;7.40;4.90;;;28.80;62.60;;;;;;5095641;28;20035;-88
2021/07/04 17:31:24;;;;;;;5.75;5.15;;;28.70;62.70;;;;;;5079506;28;20119;-88
2021/07/04 17:33:51;;;;;;;6.10;5.30;;;28.60;62.90;;;;;;5095684;28;20020;-89
2021/07/04 17:36:17;;;;;;;5.22;4.72;;;28.50;63.30;;;;;;5095121;28;20028;-87
2021/07/04 17:38:46;;;;;;;7.00;5.13;;;28.50;63.60;;;;;;5095075;28;20035;-88
2021/07/04 17:41:18;;;;;;;5.70;5.13;;;28.40;64.20;;;;;;5095116;28;20559;-88
2021/07/04 17:43:44;;;;;;;5.35;4.85;;;28.30;64.70;;;;;;5094332;28;20038;-89
2021/07/04 17:46:09;;;;;;;5.80;5.22;;;28.20;64.80;;;;;;5095105;28;20593;-88
2021/07/04 17:48:35;;;;;;;5.53;5.03;;;28.10;65.00;;;;;;5094868;28;20020;-88
2021/07/04 17:51:02;;;;;;;5.82;5.30;;;28.00;65.30;;;;;;5095204;28;20028;-88
2021/07/04 17:53:28;;;;;;;5.25;4.75;;;28.00;66.00;;;;;;5095193;28;20068;-87
2021/07/04 17:55:54;;;;;;;6.00;5.40;;;27.90;66.20;;;;;;5095802;28;20443;-88
2021/07/04 17:58:20;;;;;;;5.63;5.13;;;27.80;66.70;;;;;;5096690;28;20478;-87
2021/07/04 18:00:46;;;;;;;5.30;4.80;;;27.80;66.80;;;;;;5095891;28;20102;-88
2021/07/04 18:03:11;;;;;;;6.15;5.47;;;27.70;67.00;;;;;;5095822;28;20485;-89
2021/07/04 18:05:37;;;;;;;5.53;4.95;;;27.60;67.00;;;;;;5096277;28;20031;-88
2021/07/04 18:08:03;;;;;;;6.53;4.82;;;27.60;67.40;;;;;;5096378;28;20052;-88
2021/07/04 18:10:29;;;;;;;5.50;5.00;;;27.50;67.30;;;;;;5096029;28;20364;-88
2021/07/04 18:12:57;;;;;;;5.82;4.97;;;27.50;67.60;;;;;;5094918;28;20496;-87
2021/07/04 18:15:22;;;;;;;5.47;4.97;;;27.40;67.60;;;;;;5097518;28;20050;-88
2021/07/04 18:17:48;;;;;;;5.72;5.20;;;27.40;67.90;;;;;;5095497;28;20525;-88
2021/07/04 18:20:14;;;;;;;5.85;5.00;;;27.30;68.30;;;;;;5095667;28;20504;-87
2021/07/04 18:22:41;;;;;;;5.20;4.70;;;27.30;68.60;;;;;;5094657;28;20032;-88
2021/07/04 18:25:09;;;;;;;5.00;4.50;;;27.20;68.50;;;;;;5094846;28;20024;-88
2021/07/04 18:27:35;;;;;;;5.53;5.03;;;27.20;68.50;;;;;;5096805;28;20136;-88
2021/07/04 18:30:01;;;;;;;7.63;4.45;;;27.20;68.80;;;;;;5099042;28;20505;-88
2021/07/04 18:32:27;;;;;;;6.57;4.55;;;27.10;68.70;;;;;;5098853;28;20028;-88
2021/07/04 18:34:55;;;;;;;4.78;4.25;;;27.10;68.70;;;;;;5098708;28;20090;-87
2021/07/04 18:37:24;;;;;;;5.55;5.03;;;27.10;69.00;;;;;;5097057;28;20028;-89
2021/07/04 18:39:51;;;;;;;4.97;4.47;;;27.00;69.40;;;;;;5095051;28;20115;-88
2021/07/04 18:42:17;;;;;;;8.18;4.53;;;27.00;69.20;;;;;;5094848;28;20028;-88
2021/07/04 18:44:46;;;;;;;5.65;5.00;;;27.00;69.50;;;;;;5095199;28;20028;-88
2021/07/04 18:47:11;;;;;;;5.80;5.30;;;27.00;69.60;;;;;;5094900;28;20118;-88
2021/07/04 18:49:37;;;;;;;5.78;5.28;;;27.00;70.30;;;;;;5097323;28;20055;-89
2021/07/04 18:52:03;;;;;;;5.53;5.03;;;27.00;70.20;;;;;;5106923;28;20043;-89
2021/07/04 18:54:30;;;;;;;5.22;4.35;;;26.90;70.30;;;;;;5107426;28;20458;-88
2021/07/04 18:56:56;;;;;;;5.32;4.82;;;26.90;70.50;;;;;;5103876;28;20024;-88
2021/07/04 18:59:22;;;;;;;6.93;5.68;;;26.90;70.80;;;;;;5108007;28;20031;-89
2021/07/04 19:01:47;;;;;;;5.10;4.60;;;26.90;71.60;;;;;;5103255;28;20037;-89
2021/07/04 19:04:13;;;;;;;5.63;5.05;;;26.80;72.00;;;;;;5097886;28;20139;-89
2021/07/04 19:06:39;;;;;;;5.50;4.85;;;26.80;71.80;;;;;;5098268;28;20024;-89
2021/07/04 19:09:08;;;;;;;6.38;4.78;;;26.80;71.70;;;;;;5094018;28;20115;-88
2021/07/04 19:11:35;;;;;;;6.07;5.03;;;26.80;71.90;;;;;;5102383;28;20024;-88
2021/07/04 19:14:00;;;;;;;5.40;4.90;;;26.80;71.90;;;;;;5097923;28;20024;-88
2021/07/04 19:16:26;;;;;;;5.90;5.30;;;26.80;72.10;;;;;;5095543;28;20055;-89
2021/07/04 19:18:53;;;;;;;5.90;5.30;;;26.80;72.50;;;;;;5095801;28;20031;-89
2021/07/04 19:21:19;;;;;;;6.20;5.60;;;26.80;72.70;;;;;;5094151;28;20075;-88
2021/07/04 19:23:45;;;;;;;6.63;5.93;;;26.70;72.90;;;;;;5094501;28;20440;-89
2021/07/04 19:26:11;;;;;;;8.10;5.90;;;26.70;73.30;;;;;;5094757;28;20028;-88
2021/07/04 19:28:38;;;;;;;5.63;5.05;;;26.70;73.50;;;;;;5093993;28;20549;-89
2021/07/04 19:31:04;;;;;;;6.03;5.00;;;26.70;73.30;;;;;;5093671;28;20044;-88
2021/07/04 19:33:29;;;;;;;6.00;5.35;;;26.70;73.50;;;;;;5094093;28;20062;-88
2021/07/04 19:35:56;;;;;;;6.32;5.72;;;26.70;73.50;;;;;;5093764;28;20028;-88
2021/07/04 19:38:22;;;;;;;7.28;5.35;;;26.60;73.80;;;;;;5093893;28;20031;-88
2021/07/04 19:40:48;;;;;;;7.00;4.55;;;26.60;73.80;;;;;;5098560;28;20024;-88
2021/07/04 19:43:14;;;;;;;5.57;4.70;;;26.60;73.80;;;;;;5098690;28;20036;-88
2021/07/04 19:45:40;;;;;;;5.18;4.68;;;26.60;73.90;;;;;;5097681;28;20028;-88
2021/07/04 19:48:07;;;;;;;5.82;5.22;;;26.60;74.20;;;;;;5098242;28;20106;-88
2021/07/04 19:50:34;;;;;;;6.28;5.13;;;26.60;74.40;;;;;;5098334;28;20035;-89
2021/07/04 19:53:00;;;;;;;6.70;4.85;;;26.50;74.80;;;;;;5097887;28;20035;-88
2021/07/04 19:55:26;;;;;;;5.97;5.28;;;26.50;75.40;;;;;;5098304;28;20024;-88
2021/07/04 19:57:53;;;;;;;5.70;5.10;;;26.50;75.60;;;;;;5098413;28;20020;-89
2021/07/04 20:00:24;;;;;;;5.88;5.32;;;26.30;75.80;;;;;;5099896;28;20028;-88
2021/07/04 20:02:51;;;;;;;5.70;4.88;;;26.30;75.70;;;;;;5098281;28;20051;-89
2021/07/04 20:05:17;;;;;;;5.43;4.93;;;26.30;75.70;;;;;;5100251;28;20029;-89
2021/07/04 20:07:44;;;;;;;5.80;4.90;;;26.20;75.90;;;;;;5098357;28;20054;-88
2021/07/04 20:10:11;;;;;;;4.50;4.10;;;26.20;76.00;;;;;;5099018;28;20054;-88
2021/07/04 20:12:39;;;;;;;5.30;4.80;;;26.10;76.00;;;;;;5098427;28;20036;-88
2021/07/04 20:15:06;;;;;;;5.38;4.78;;;26.10;76.20;;;;;;5099346;28;20024;-88
2021/07/04 20:17:32;;;;;;;5.95;5.38;;;26.10;76.30;;;;;;5097718;28;20028;-88
2021/07/04 20:20:03;;;;;;;5.32;4.82;;;26.10;76.50;;;;;;5099667;28;20028;-88
2021/07/04 20:22:29;;;;;;;5.35;4.85;;;26.00;77.00;;;;;;5097887;28;20032;-88
2021/07/04 20:24:54;;;;;;;5.70;5.15;;;26.00;76.70;;;;;;5098332;28;20482;-89
2021/07/04 20:27:20;;;;;;;5.32;4.82;;;26.00;76.80;;;;;;5096994;28;20374;-88
2021/07/04 20:29:46;;;;;;;5.13;4.63;;;25.90;76.70;;;;;;5097107;28;20060;-88
2021/07/04 20:32:11;;;;;;;5.35;4.85;;;26.00;76.70;;;;;;5096953;28;20036;-88
2021/07/04 20:34:39;;;;;;;5.95;4.88;;;26.00;76.70;;;;;;5097825;28;20020;-88
2021/07/04 20:37:05;;;;;;;5.55;4.97;;;26.00;76.90;;;;;;5099815;28;20059;-88
2021/07/04 20:39:32;;;;;;;7.13;5.18;;;25.90;76.90;;;;;;5099618;28;20363;-88
2021/07/04 20:41:59;;;;;;;5.43;4.65;;;25.90;76.80;;;;;;5099512;28;20123;-88
2021/07/04 20:44:24;;;;;;;4.95;4.53;;;25.90;76.90;;;;;;5100849;28;20028;-88
2021/07/04 20:46:50;;;;;;;4.90;4.50;;;25.90;77.00;;;;;;5099905;28;20111;-88
2021/07/04 20:49:16;;;;;;;5.15;4.43;;;25.90;76.90;;;;;;5100610;28;20119;-89
2021/07/04 20:51:46;;;;;;;5.50;4.25;;;25.90;76.70;;;;;;5100686;28;20139;-88
2021/07/04 20:54:14;;;;;;;4.97;4.47;;;26.00;76.80;;;;;;5097728;28;20058;-88
2021/07/04 20:56:40;;;;;;;4.93;4.53;;;26.00;76.80;;;;;;5098287;28;20027;-87
2021/07/04 20:59:07;;;;;;;4.72;4.30;;;26.00;76.80;;;;;;5100747;28;20470;-88
2021/07/04 21:01:33;;;;;;;7.70;4.47;;;26.00;76.80;;;;;;5102380;28;20028;-88
2021/07/04 21:03:59;;;;;;;5.05;4.55;;;25.90;76.70;;;;;;5107027;28;20058;-87
2021/07/04 21:06:25;;;;;;;5.68;4.57;;;25.80;76.80;;;;;;5108449;28;20031;-90
2021/07/04 21:08:50;;;;;;;5.05;4.63;;;25.80;77.00;;;;;;5105212;28;20459;-88
2021/07/04 21:11:17;;;;;;;7.80;4.90;;;25.80;77.40;;;;;;5100234;28;20024;-88
2021/07/04 21:13:43;;;;;;;4.72;4.25;;;25.70;77.50;;;;;;5096565;28;20174;-88
2021/07/04 21:16:09;;;;;;;6.03;4.50;;;25.70;77.50;;;;;;5097720;28;20077;-88
2021/07/04 21:18:36;;;;;;;4.80;4.35;;;25.70;77.60;;;;;;5096310;28;20081;-88
2021/07/04 21:21:03;;;;;;;4.90;4.40;;;25.70;77.80;;;;;;5097670;28;20107;-88
2021/07/04 21:23:29;;;;;;;5.18;4.68;;;25.70;77.90;;;;;;5095662;28;20470;-88
2021/07/04 21:25:54;;;;;;;5.53;4.45;;;25.60;77.90;;;;;;5096885;28;20061;-88
2021/07/04 21:28:20;;;;;;;5.65;4.65;;;25.60;78.10;;;;;;5097180;28;20024;-88
2021/07/04 21:30:46;;;;;;;4.50;4.10;;;25.50;78.20;;;;;;5096057;28;20035;-88
2021/07/04 21:33:11;;;;;;;4.88;4.43;;;25.50;78.20;;;;;;5096312;28;20385;-88
2021/07/04 21:35:38;;;;;;;5.53;4.97;;;25.50;78.40;;;;;;5096836;28;20058;-88
2021/07/04 21:38:04;;;;;;;5.72;5.00;;;25.50;78.70;;;;;;5096407;28;20059;-88
2021/07/04 21:40:31;;;;;;;5.68;4.85;;;25.40;79.00;;;;;;5095326;28;20085;-88
2021/07/04 21:42:58;;;;;;;5.25;4.72;;;25.30;79.40;;;;;;5095945;28;20039;-87
2021/07/04 21:45:24;;;;;;;8.07;5.75;;;25.30;79.70;;;;;;5094669;28;20032;-88
2021/07/04 21:47:50;;;;;;;4.78;4.28;;;25.20;80.00;;;;;;5095351;28;20123;-88
2021/07/04 21:50:19;;;;;;;5.97;4.55;;;25.30;80.30;;;;;;5094929;28;20028;-88
2021/07/04 21:52:44;;;;;;;5.50;4.95;;;25.20;80.40;;;;;;5095296;28;20377;-87
2021/07/04 21:55:14;;;;;;;5.30;4.57;;;25.20;81.30;;;;;;5095212;28;20020;-88
2021/07/04 21:57:40;;;;;;;4.88;4.47;;;25.10;81.40;;;;;;5094703;28;20637;-88
2021/07/04 22:00:09;;;;;;;5.30;4.78;;;25.00;81.60;;;;;;5095280;28;20023;-87
2021/07/04 22:02:35;;;;;;;7.60;5.53;;;24.90;81.90;;;;;;5096607;28;20036;-88
2021/07/04 22:05:01;;;;;;;5.47;4.57;;;24.90;82.20;;;;;;5099269;28;20020;-88
2021/07/04 22:07:26;;;;;;;5.50;4.50;;;24.90;81.90;;;;;;5099842;28;20095;-88
2021/07/04 22:09:52;;;;;;;4.97;4.43;;;24.90;81.90;;;;;;5099213;28;20114;-88
2021/07/04 22:12:18;;;;;;;4.97;4.47;;;24.90;81.70;;;;;;5116263;28;20481;-88
2021/07/04 22:14:43;;;;;;;5.38;4.43;;;24.90;81.80;;;;;;5098709;28;20024;-87
2021/07/04 22:17:09;;;;;;;4.88;4.20;;;24.90;81.90;;;;;;5098401;28;20416;-88
2021/07/04 22:19:35;;;;;;;6.03;5.35;;;24.90;81.90;;;;;;5098371;28;20030;-88
2021/07/04 22:22:00;;;;;;;5.07;4.57;;;24.80;82.20;;;;;;5097968;28;20072;-88
2021/07/04 22:24:26;;;;;;;5.55;4.93;;;24.80;82.30;;;;;;5116078;28;20034;-88
2021/07/04 22:26:53;;;;;;;5.10;4.60;;;24.80;82.40;;;;;;5097943;28;20028;-88
2021/07/04 22:29:18;;;;;;;6.50;4.70;;;24.80;82.30;;;;;;5097941;28;20031;-88
2021/07/04 22:31:44;;;;;;;5.18;4.68;;;24.80;82.40;;;;;;5115938;28;20020;-87
2021/07/04 22:34:10;;;;;;;4.88;4.25;;;24.80;82.60;;;;;;5098986;28;20073;-88
2021/07/04 22:36:35;;;;;;;7.00;4.68;;;24.80;82.60;;;;;;5098003;28;20442;-88
2021/07/04 22:39:01;;;;;;;5.22;4.53;;;24.70;82.70;;;;;;5115877;28;20041;-88
2021/07/04 22:41:27;;;;;;;4.43;4.03;;;24.70;82.90;;;;;;5097479;28;20031;-87
2021/07/04 22:43:52;;;;;;;6.60;5.07;;;24.60;82.90;;;;;;5115683;28;20033;-88
2021/07/04 22:46:18;;;;;;;5.50;4.90;;;24.60;83.30;;;;;;5115878;28;20443;-88
2021/07/04 22:48:44;;;;;;;4.82;4.30;;;24.60;83.30;;;;;;5097902;28;20030;-88
2021/07/04 22:51:10;;;;;;;8.15;4.70;;;24.60;83.30;;;;;;5097979;28;20054;-88
2021/07/04 22:53:36;;;;;;;6.13;4.82;;;24.70;83.40;;;;;;5097533;28;20428;-88
2021/07/04 22:56:01;;;;;;;5.05;4.35;;;24.70;83.30;;;;;;5116269;28;20024;-88
2021/07/04 22:58:27;;;;;;;7.38;4.50;;;24.70;83.40;;;;;;5097875;28;20024;-88
2021/07/04 23:00:56;;;;;;;5.07;4.13;;;24.70;83.30;;;;;;5099523;28;20355;-89
2021/07/04 23:03:22;;;;;;;4.47;4.07;;;24.70;83.30;;;;;;5102595;28;20510;-88
2021/07/04 23:05:48;;;;;;;5.07;4.55;;;24.70;83.40;;;;;;5119311;28;20028;-88
2021/07/04 23:08:14;;;;;;;5.72;5.10;;;24.70;83.90;;;;;;5103482;28;20030;-88
2021/07/04 23:10:39;;;;;;;6.30;4.78;;;24.60;83.50;;;;;;5126960;28;20069;-87
2021/07/04 23:13:06;;;;;;;5.60;3.83;;;24.50;83.70;;;;;;5124330;28;20037;-88
2021/07/04 23:15:32;;;;;;;5.25;4.25;;;24.50;84.10;;;;;;5107343;28;20034;-88
2021/07/04 23:17:58;;;;;;;4.07;3.67;;;24.50;84.20;;;;;;5122630;28;20024;-87
2021/07/04 23:20:27;;;;;;;5.50;3.78;;;24.50;84.20;;;;;;5103240;28;20028;-88
2021/07/04 23:22:53;;;;;;;4.38;3.97;;;24.50;84.20;;;;;;5101061;28;20482;-88
2021/07/04 23:25:19;;;;;;;3.92;3.60;;;24.60;84.10;;;;;;5101268;28;20023;-88
2021/07/04 23:27:46;;;;;;;4.55;4.00;;;24.60;83.90;;;;;;5101388;28;20416;-88
2021/07/04 23:30:14;;;;;;;5.90;4.28;;;24.60;83.90;;;;;;5101708;28;20027;-88
2021/07/04 23:32:40;;;;;;;4.25;3.85;;;24.70;84.30;;;;;;5101252;28;20135;-88
2021/07/04 23:35:08;;;;;;;4.88;4.28;;;24.70;83.60;;;;;;5119444;28;20027;-88
2021/07/04 23:37:35;;;;;;;5.38;4.50;;;24.70;83.60;;;;;;5101311;28;20028;-88
2021/07/04 23:40:02;;;;;;;4.13;3.72;;;24.70;83.60;;;;;;5119527;28;20023;-88
2021/07/04 23:42:28;;;;;;;6.60;3.60;;;24.80;83.40;;;;;;5100944;28;20023;-88
2021/07/04 23:44:53;;;;;;;6.00;4.07;;;24.90;83.00;;;;;;5102048;28;20118;-87
2021/07/04 23:47:19;;;;;;;4.18;3.78;;;24.90;82.80;;;;;;5119072;28;20343;-88
2021/07/04 23:49:46;;;;;;;7.47;4.45;;;24.90;82.80;;;;;;5100932;28;20056;-88
2021/07/04 23:52:12;;;;;;;4.85;4.18;;;24.90;82.50;;;;;;5100786;28;20035;-88
2021/07/04 23:54:38;;;;;;;6.97;4.10;;;24.90;82.50;;;;;;5119101;28;20031;-88
2021/07/04 23:57:03;;;;;;;4.75;4.05;;;24.90;82.50;;;;;;5100578;28;20020;-88
2021/07/04 23:59:29;;;;;;;4.90;3.97;;;24.90;82.20;;;;;;5101736;28;20091;-88
